createdAt,value
2018-01-13T00:00:16.859Z,35.57
2018-01-13T00:02:44.454Z,40.83
2018-01-13T00:05:11.952Z,45.80
2018-01-13T00:07:41.080Z,40.73
2018-01-13T00:10:08.630Z,43.93
2018-01-13T00:12:36.190Z,37.17
2018-01-13T00:15:03.726Z,43.23
2018-01-13T00:17:31.267Z,43.50
2018-01-13T00:19:58.828Z,29.60
2018-01-13T00:22:38.085Z,42.67
2018-01-13T00:25:05.705Z,44.00
2018-01-13T00:27:33.244Z,46.00
2018-01-13T00:30:00.787Z,34.40
2018-01-13T00:32:28.331Z,35.33
2018-01-13T00:34:55.846Z,36.57
2018-01-13T00:37:23.389Z,39.70
2018-01-13T00:39:50.925Z,41.70
2018-01-13T00:42:19.239Z,45.60
2018-01-13T00:44:47.555Z,46.40
2018-01-13T00:47:15.849Z,48.30
2018-01-13T00:49:44.161Z,44.63
2018-01-13T00:52:12.478Z,55.57
2018-01-13T00:54:39.993Z,47.47
2018-01-13T00:57:07.547Z,49.13
2018-01-13T00:59:35.075Z,44.17
2018-01-13T01:02:02.595Z,41.67
2018-01-13T01:04:30.899Z,46.63
2018-01-13T01:06:59.282Z,49.57
2018-01-13T01:09:26.813Z,52.70
2018-01-13T01:11:54.331Z,45.53
2018-01-13T01:14:21.845Z,52.23
2018-01-13T01:16:50.214Z,55.83
2018-01-13T01:19:17.900Z,50.27
2018-01-13T01:21:45.437Z,49.93
2018-01-13T01:24:13.831Z,53.53
2018-01-13T01:26:41.345Z,47.57
2018-01-13T01:29:09.647Z,49.30
2018-01-13T01:31:37.945Z,46.07
2018-01-13T01:34:06.311Z,43.00
2018-01-13T01:36:34.605Z,47.60
2018-01-13T01:39:02.204Z,42.10
2018-01-13T01:41:29.729Z,46.97
2018-01-13T01:43:57.260Z,48.33
2018-01-13T01:46:24.813Z,51.10
2018-01-13T01:48:53.194Z,56.00
2018-01-13T01:51:21.560Z,56.13
2018-01-13T01:53:49.086Z,52.97
2018-01-13T01:56:16.670Z,56.03
2018-01-13T01:58:44.248Z,53.70
2018-01-13T02:01:11.796Z,55.47
2018-01-13T02:03:39.326Z,55.17
2018-01-13T02:06:06.956Z,59.27
2018-01-13T02:08:35.339Z,63.83
2018-01-13T02:11:03.638Z,59.10
2018-01-13T02:13:31.192Z,60.37
2018-01-13T02:15:58.721Z,61.60
2018-01-13T02:18:27.021Z,61.50
2018-01-13T02:20:54.595Z,63.33
2018-01-13T02:23:22.971Z,64.57
2018-01-13T02:25:50.521Z,64.47
2018-01-13T02:28:18.091Z,60.97
2018-01-13T02:30:45.647Z,60.22
2018-01-13T02:33:14.083Z,62.77
2018-01-13T02:35:41.608Z,61.97
2018-01-13T02:38:09.905Z,59.50
2018-01-13T02:40:37.472Z,56.33
2018-01-13T02:43:04.992Z,53.00
2018-01-13T02:45:32.552Z,62.77
2018-01-13T02:48:00.098Z,58.23
2018-01-13T02:50:27.659Z,55.27
2018-01-13T02:52:55.189Z,61.83
2018-01-13T02:55:22.707Z,66.90
2018-01-13T02:57:51.008Z,64.55
2018-01-13T03:00:19.400Z,54.23
2018-01-13T03:02:46.961Z,65.50
2018-01-13T03:05:14.518Z,64.83
2018-01-13T03:07:42.080Z,59.73
2018-01-13T03:10:10.393Z,68.50
2018-01-13T03:12:37.929Z,77.07
2018-01-13T03:15:05.590Z,68.70
2018-01-13T03:17:33.115Z,66.77
2018-01-13T03:20:00.639Z,72.30
2018-01-13T03:22:28.220Z,73.47
2018-01-13T03:24:55.731Z,72.63
2018-01-13T03:27:23.312Z,69.90
2018-01-13T03:29:50.868Z,72.50
2018-01-13T03:32:19.180Z,69.50
2018-01-13T03:34:47.450Z,70.60
2018-01-13T03:37:15.735Z,63.50
2018-01-13T03:39:43.299Z,69.63
2018-01-13T03:42:10.833Z,70.10
2018-01-13T03:44:39.146Z,74.67
2018-01-13T03:47:07.447Z,73.27
2018-01-13T03:49:35.760Z,79.30
2018-01-13T03:52:04.051Z,79.57
2018-01-13T03:54:31.671Z,66.07
2018-01-13T03:56:59.956Z,77.67
2018-01-13T03:59:28.284Z,75.00
2018-01-13T04:01:56.592Z,79.47
2018-01-13T04:04:24.119Z,67.40
2018-01-13T04:06:51.672Z,69.27
2018-01-13T04:09:19.954Z,70.10
2018-01-13T04:11:48.245Z,77.47
2018-01-13T04:14:15.878Z,67.23
2018-01-13T04:16:43.550Z,74.93
2018-01-13T04:19:11.136Z,64.73
2018-01-13T04:21:39.464Z,66.07
2018-01-13T04:24:07.046Z,72.37
2018-01-13T04:26:34.599Z,80.37
2018-01-13T04:29:02.221Z,80.70
2018-01-13T04:31:30.561Z,75.60
2018-01-13T04:33:58.867Z,80.00
2018-01-13T04:36:27.194Z,73.73
2018-01-13T04:38:55.493Z,73.03
2018-01-13T04:41:23.814Z,69.40
2018-01-13T04:43:51.353Z,65.17
2018-01-13T04:46:19.725Z,67.37
2018-01-13T04:48:47.253Z,57.33
2018-01-13T04:51:15.537Z,52.43
2018-01-13T04:53:43.110Z,53.67
2018-01-13T04:56:10.633Z,56.73
2018-01-13T04:58:38.935Z,58.20
2018-01-13T05:01:06.530Z,63.60
2018-01-13T05:03:34.059Z,74.40
2018-01-13T05:06:02.370Z,51.77
2018-01-13T05:08:30.646Z,64.73
2018-01-13T05:10:58.158Z,66.77
2018-01-13T05:13:26.490Z,66.78
2018-01-13T05:15:54.019Z,64.20
2018-01-13T05:18:21.656Z,62.37
2018-01-13T05:20:49.199Z,65.17
2018-01-13T05:23:16.860Z,69.65
2018-01-13T05:25:44.400Z,65.33
2018-01-13T05:28:12.681Z,64.23
2018-01-13T05:30:40.224Z,75.12
2018-01-13T05:33:07.780Z,70.20
2018-01-13T05:35:36.078Z,69.10
2018-01-13T05:38:04.381Z,71.87
2018-01-13T05:40:32.735Z,61.50
2018-01-13T05:43:01.021Z,60.80
2018-01-13T05:45:28.709Z,75.23
2018-01-13T05:47:56.987Z,58.93
2018-01-13T05:50:24.571Z,65.13
2018-01-13T05:52:52.099Z,65.43
2018-01-13T05:55:20.402Z,62.27
2018-01-13T05:57:47.981Z,68.33
2018-01-13T06:00:15.520Z,65.10
2018-01-13T06:02:43.070Z,66.17
2018-01-13T06:05:10.670Z,65.67
2018-01-13T06:07:38.973Z,61.93
2018-01-13T06:10:07.294Z,64.27
2018-01-13T06:12:34.814Z,70.83
2018-01-13T06:15:02.313Z,71.00
2018-01-13T06:17:29.972Z,54.90
2018-01-13T06:19:57.494Z,63.43
2018-01-13T06:22:24.992Z,64.87
2018-01-13T06:24:52.563Z,57.83
2018-01-13T06:27:20.074Z,63.17
2018-01-13T06:29:48.411Z,58.25
2018-01-13T06:32:15.977Z,57.13
2018-01-13T06:34:43.697Z,63.43
2018-01-13T06:37:12.013Z,58.00
2018-01-13T06:39:39.574Z,47.42
2018-01-13T06:42:07.896Z,53.43
2018-01-13T06:44:36.240Z,49.73
2018-01-13T06:47:03.780Z,52.65
2018-01-13T06:49:32.099Z,43.47
2018-01-13T06:51:59.635Z,44.37
2018-01-13T06:54:27.211Z,52.43
2018-01-13T06:56:54.756Z,45.37
2018-01-13T06:59:22.301Z,40.67
2018-01-13T07:01:49.923Z,48.33
2018-01-13T07:04:18.299Z,47.17
2018-01-13T07:06:45.878Z,52.30
2018-01-13T07:09:14.357Z,55.05
2018-01-13T07:11:42.043Z,55.43
2018-01-13T07:14:09.573Z,51.97
2018-01-13T07:16:37.115Z,52.10
2018-01-13T07:19:05.447Z,57.03
2018-01-13T07:21:33.011Z,52.30
2018-01-13T07:24:00.574Z,49.37
2018-01-13T07:26:28.143Z,53.73
2018-01-13T07:28:56.551Z,51.40
2018-01-13T07:31:24.082Z,55.20
2018-01-13T07:33:51.860Z,57.50
2018-01-13T07:36:19.434Z,61.80
2018-01-13T07:38:47.840Z,47.90
2018-01-13T07:41:15.486Z,44.87
2018-01-13T07:43:42.999Z,50.77
2018-01-13T07:46:10.534Z,42.03
2018-01-13T07:48:38.828Z,47.87
2018-01-13T07:51:07.151Z,31.97
2018-01-13T07:53:35.472Z,37.00
2018-01-13T07:56:03.127Z,42.17
2018-01-13T07:58:31.470Z,38.33
2018-01-13T08:00:59.007Z,40.70
2018-01-13T08:03:28.175Z,39.45
2018-01-13T08:05:56.495Z,41.17
2018-01-13T08:08:24.028Z,44.00
2018-01-13T08:10:51.579Z,39.00
2018-01-13T08:13:19.120Z,40.50
2018-01-13T08:15:46.665Z,42.90
2018-01-13T08:18:14.188Z,45.17
2018-01-13T08:20:42.490Z,39.67
2018-01-13T08:23:10.119Z,42.13
2018-01-13T08:25:38.432Z,32.03
2018-01-13T08:28:06.021Z,34.33
2018-01-13T08:30:33.564Z,30.93
2018-01-13T08:33:01.182Z,27.30
2018-01-13T08:35:28.743Z,33.33
2018-01-13T08:37:57.044Z,34.23
2018-01-13T08:40:24.593Z,38.67
2018-01-13T08:42:52.234Z,35.07
2018-01-13T08:45:19.787Z,31.83
2018-01-13T08:47:48.148Z,36.67
2018-01-13T08:50:15.771Z,35.83
2018-01-13T08:52:44.115Z,37.03
2018-01-13T08:55:11.681Z,40.53
2018-01-13T08:57:39.255Z,35.77
2018-01-13T09:00:06.783Z,39.33
2018-01-13T09:02:34.812Z,41.97
2018-01-13T09:05:03.136Z,28.10
2018-01-13T09:07:30.678Z,30.47
2018-01-13T09:09:58.401Z,38.43
2018-01-13T09:12:26.719Z,35.70
2018-01-13T09:14:54.266Z,42.27
2018-01-13T09:17:22.676Z,41.72
2018-01-13T09:19:50.991Z,39.97
2018-01-13T09:22:19.313Z,35.93
2018-01-13T09:24:46.872Z,32.30
2018-01-13T09:27:14.480Z,40.60
2018-01-13T09:29:42.026Z,38.23
2018-01-13T09:32:09.565Z,39.63
2018-01-13T09:34:37.117Z,35.13
2018-01-13T09:37:05.453Z,41.00
2018-01-13T09:39:33.006Z,40.10
2018-01-13T09:42:01.642Z,42.80
2018-01-13T09:44:29.175Z,50.73
2018-01-13T09:46:56.695Z,46.73
2018-01-13T09:49:25.014Z,46.03
2018-01-13T09:51:52.574Z,44.80
2018-01-13T09:54:21.060Z,38.20
2018-01-13T09:56:48.584Z,43.50
2018-01-13T09:59:16.937Z,43.53
2018-01-13T10:01:44.468Z,47.00
2018-01-13T10:04:11.988Z,47.60
2018-01-13T10:06:39.544Z,43.87
2018-01-13T10:09:07.092Z,48.60
2018-01-13T10:11:34.642Z,53.90
2018-01-13T10:14:02.159Z,46.90
2018-01-13T10:16:29.823Z,48.70
2018-01-13T10:18:57.377Z,52.17
2018-01-13T10:21:25.027Z,44.97
2018-01-13T10:23:52.544Z,48.80
2018-01-13T10:26:20.056Z,50.03
2018-01-13T10:28:47.602Z,51.20
2018-01-13T10:31:15.128Z,55.63
2018-01-13T10:33:42.728Z,45.80
2018-01-13T10:36:11.068Z,44.80
2018-01-13T10:38:39.360Z,46.60
2018-01-13T10:41:07.674Z,46.47
2018-01-13T10:43:36.943Z,45.33
2018-01-13T10:46:05.387Z,45.33
2018-01-13T10:48:32.955Z,41.87
2018-01-13T10:51:00.522Z,50.93
2018-01-13T10:53:28.302Z,46.80
2018-01-13T10:55:56.645Z,58.33
2018-01-13T10:58:24.181Z,49.67
2018-01-13T11:00:52.497Z,37.60
2018-01-13T11:03:20.126Z,45.60
2018-01-13T11:05:48.583Z,50.87
2018-01-13T11:08:16.146Z,49.47
2018-01-13T11:10:44.537Z,52.20
2018-01-13T11:13:12.870Z,43.27
2018-01-13T11:15:40.915Z,46.23
2018-01-13T11:18:08.440Z,45.37
2018-01-13T11:20:36.186Z,52.73
2018-01-13T11:23:03.802Z,49.50
2018-01-13T11:25:32.233Z,44.80
2018-01-13T11:28:00.698Z,45.40
2018-01-13T11:30:28.263Z,43.37
2018-01-13T11:32:55.845Z,43.80
2018-01-13T11:35:23.445Z,45.43
2018-01-13T11:37:51.794Z,45.20
2018-01-13T11:40:19.418Z,37.93
2018-01-13T11:42:47.141Z,44.40
2018-01-13T11:45:15.500Z,39.97
2018-01-13T11:47:43.122Z,45.92
2018-01-13T11:50:10.751Z,39.80
2018-01-13T11:52:39.128Z,40.20
2018-01-13T11:55:06.819Z,41.85
2018-01-13T11:57:34.435Z,37.97
2018-01-13T12:00:02.008Z,38.83
2018-01-13T12:02:30.371Z,39.60
2018-01-13T12:04:57.942Z,40.50
2018-01-13T12:07:26.514Z,39.77
2018-01-13T12:09:54.941Z,35.17
2018-01-13T12:12:22.610Z,41.60
2018-01-13T12:14:50.131Z,35.03
2018-01-13T12:17:17.766Z,38.67
2018-01-13T12:19:45.344Z,35.83
2018-01-13T12:22:12.880Z,38.95
2018-01-13T12:24:41.249Z,42.93
2018-01-13T12:27:08.806Z,41.33
2018-01-13T12:29:36.364Z,43.07
2018-01-13T12:32:04.186Z,47.23
2018-01-13T12:34:31.747Z,47.13
2018-01-13T12:37:01.560Z,44.93
2018-01-13T12:39:31.572Z,41.40
2018-01-13T12:41:59.954Z,40.80
2018-01-13T12:44:28.002Z,46.87
2018-01-13T12:46:56.923Z,45.30
2018-01-13T12:49:25.220Z,40.70
2018-01-13T12:51:54.014Z,41.05
2018-01-13T12:54:22.493Z,37.10
2018-01-13T12:56:51.368Z,40.25
2018-01-13T12:59:22.243Z,43.80
2018-01-13T13:01:50.182Z,37.73
2018-01-13T13:04:18.509Z,41.03
2018-01-13T13:06:46.942Z,40.67
2018-01-13T13:09:16.379Z,40.50
2018-01-13T13:11:44.362Z,40.10
2018-01-13T13:14:13.062Z,38.90
2018-01-13T13:16:42.484Z,35.50
2018-01-13T13:19:10.569Z,32.47
2018-01-13T13:21:39.177Z,37.83
2018-01-13T13:24:08.071Z,36.33
2018-01-13T13:26:38.226Z,38.65
2018-01-13T13:29:07.802Z,36.60
2018-01-13T13:31:37.798Z,42.50
2018-01-13T13:34:06.932Z,46.13
2018-01-13T13:36:34.977Z,41.00
2018-01-13T13:39:03.172Z,45.43
2018-01-13T13:41:31.768Z,40.47
2018-01-13T13:43:59.874Z,40.33
2018-01-13T13:46:28.090Z,42.47
2018-01-13T13:48:56.989Z,38.10
2018-01-13T13:51:25.059Z,43.73
2018-01-13T13:53:53.039Z,43.97
2018-01-13T13:56:21.410Z,42.92
2018-01-13T13:58:49.655Z,46.23
2018-01-13T14:01:28.592Z,39.27
2018-01-13T14:03:47.740Z,45.30
2018-01-13T14:06:16.873Z,46.58
2018-01-13T14:08:45.048Z,45.30
2018-01-13T14:11:14.416Z,47.00
2018-01-13T14:13:42.447Z,37.13
2018-01-13T14:16:11.502Z,38.27
2018-01-13T14:18:41.452Z,43.77
2018-01-13T14:21:10.553Z,42.90
2018-01-13T14:23:39.449Z,40.00
2018-01-13T14:26:07.281Z,42.17
2018-01-13T14:28:35.412Z,41.30
2018-01-13T14:31:03.740Z,44.07
2018-01-13T14:33:32.212Z,40.00
2018-01-13T14:36:01.045Z,47.77
2018-01-13T14:38:30.090Z,44.00
2018-01-13T14:40:58.926Z,40.43
2018-01-13T14:43:27.040Z,48.87
2018-01-13T14:45:56.288Z,42.17
2018-01-13T14:48:26.282Z,33.35
2018-01-13T14:50:56.333Z,39.85
2018-01-13T14:53:25.502Z,43.53
2018-01-13T14:55:53.885Z,41.85
2018-01-13T14:58:22.374Z,46.93
2018-01-13T15:00:50.888Z,47.03
2018-01-13T15:03:20.347Z,35.90
2018-01-13T15:05:49.543Z,43.47
2018-01-13T15:08:17.742Z,44.08
2018-01-13T15:10:47.216Z,49.55
2018-01-13T15:13:16.897Z,46.17
2018-01-13T15:15:46.388Z,44.60
2018-01-13T15:18:15.308Z,45.70
2018-01-13T15:20:44.589Z,45.33
2018-01-13T15:23:14.858Z,46.17
2018-01-13T15:25:44.370Z,47.10
2018-01-13T15:28:13.264Z,42.97
2018-01-13T15:30:45.854Z,48.97
2018-01-13T15:33:14.994Z,47.40
2018-01-13T15:35:43.814Z,43.00
2018-01-13T15:38:12.178Z,40.57
2018-01-13T15:40:40.045Z,50.20
2018-01-13T15:43:09.126Z,48.90
2018-01-13T15:45:37.022Z,42.90
2018-01-13T15:48:05.508Z,35.67
2018-01-13T15:50:33.987Z,41.42
2018-01-13T15:53:02.949Z,50.57
2018-01-13T15:55:31.348Z,43.53
2018-01-13T15:58:01.321Z,43.92
2018-01-13T16:00:29.275Z,54.88
2018-01-13T16:02:58.364Z,56.78
2018-01-13T16:05:27.390Z,55.58
2018-01-13T16:07:56.475Z,58.80
2018-01-13T16:10:25.240Z,47.65
2018-01-13T16:12:54.931Z,46.92
2018-01-13T16:15:25.112Z,52.38
2018-01-13T16:17:53.452Z,47.53
2018-01-13T16:20:22.211Z,50.03
2018-01-13T16:22:52.463Z,43.03
2018-01-13T16:25:21.327Z,48.72
2018-01-13T16:27:49.529Z,51.13
2018-01-13T16:30:17.763Z,52.13
2018-01-13T16:32:45.991Z,47.58
2018-01-13T16:35:14.039Z,58.03
2018-01-13T16:37:42.728Z,59.63
2018-01-13T16:40:11.016Z,57.90
2018-01-13T16:42:39.368Z,51.00
2018-01-13T16:45:08.866Z,49.65
2018-01-13T16:47:37.910Z,57.17
2018-01-13T16:50:07.262Z,52.95
2018-01-13T16:52:35.270Z,47.53
2018-01-13T16:55:04.671Z,53.72
2018-01-13T16:57:34.904Z,52.10
2018-01-13T17:00:03.924Z,62.40
2018-01-13T17:02:31.910Z,52.67
2018-01-13T17:05:00.252Z,62.67
2018-01-13T17:07:29.994Z,60.70
2018-01-13T17:09:58.607Z,61.97
2018-01-13T17:12:27.005Z,58.78
2018-01-13T17:14:54.909Z,52.88
2018-01-13T17:17:24.212Z,49.72
2018-01-13T17:19:53.395Z,64.43
2018-01-13T17:22:21.867Z,47.72
2018-01-13T17:24:51.223Z,52.08
2018-01-13T17:27:19.366Z,46.15
2018-01-13T17:29:48.503Z,46.00
2018-01-13T17:32:16.951Z,44.58
2018-01-13T17:34:47.398Z,51.45
2018-01-13T17:37:16.124Z,46.67
2018-01-13T17:39:44.855Z,49.97
2018-01-13T17:42:13.568Z,38.20
2018-01-13T17:44:42.077Z,46.45
2018-01-13T17:47:11.359Z,48.15
2018-01-13T17:49:39.314Z,43.30
2018-01-13T17:52:07.718Z,49.10
2018-01-13T17:54:36.003Z,44.10
2018-01-13T17:57:04.988Z,40.53
2018-01-13T17:59:34.515Z,49.40
2018-01-13T18:02:04.948Z,36.20
2018-01-13T18:04:33.216Z,44.97
2018-01-13T18:07:01.033Z,41.80
2018-01-13T18:09:29.409Z,47.70
2018-01-13T18:11:57.969Z,41.58
2018-01-13T18:14:26.195Z,41.90
2018-01-13T18:16:54.227Z,45.28
2018-01-13T18:19:24.547Z,50.53
2018-01-13T18:21:53.035Z,42.05
2018-01-13T18:24:21.252Z,44.03
2018-01-13T18:26:49.421Z,45.42
2018-01-13T18:29:17.995Z,46.92
2018-01-13T18:31:47.379Z,55.65
2018-01-13T18:34:16.921Z,47.33
2018-01-13T18:36:45.357Z,48.80
2018-01-13T18:39:13.336Z,42.70
2018-01-13T18:41:41.532Z,40.50
2018-01-13T18:44:11.211Z,43.40
2018-01-13T18:46:40.180Z,46.50
2018-01-13T18:49:08.348Z,48.47
2018-01-13T18:51:36.333Z,43.22
2018-01-13T18:54:05.173Z,41.22
2018-01-13T18:56:35.192Z,44.67
2018-01-13T18:59:03.262Z,41.63
2018-01-13T19:01:31.766Z,39.92
2018-01-13T19:04:00.829Z,42.50
2018-01-13T19:06:29.100Z,41.40
2018-01-13T19:08:57.862Z,42.22
2018-01-13T19:11:26.529Z,38.33
2018-01-13T19:13:54.258Z,36.28
2018-01-13T19:16:23.046Z,40.67
2018-01-13T19:18:51.857Z,39.63
2018-01-13T19:21:21.057Z,35.72
2018-01-13T19:23:49.214Z,33.65
2018-01-13T19:26:17.570Z,41.58
2018-01-13T19:28:47.814Z,33.67
2018-01-13T19:31:16.670Z,33.55
2018-01-13T19:33:45.437Z,31.95
2018-01-13T19:36:13.612Z,36.13
2018-01-13T19:38:42.277Z,30.08
2018-01-13T19:41:10.273Z,31.77
2018-01-13T19:43:38.877Z,31.10
2018-01-13T19:46:07.201Z,34.72
2018-01-13T19:48:35.136Z,32.83
2018-01-13T19:51:04.477Z,32.60
2018-01-13T19:53:32.997Z,35.38
2018-01-13T19:56:02.242Z,32.22
2018-01-13T19:58:31.584Z,30.62
2018-01-13T20:01:02.397Z,34.42
2018-01-13T20:03:31.575Z,31.80
2018-01-13T20:06:01.272Z,33.53
2018-01-13T20:08:30.772Z,33.58
2018-01-13T20:11:00.287Z,25.23
2018-01-13T20:13:28.952Z,28.65
2018-01-13T20:16:04.141Z,28.58
2018-01-13T20:18:32.733Z,25.85
2018-01-13T20:21:02.033Z,27.20
2018-01-13T20:23:30.303Z,28.40
2018-01-13T20:25:59.317Z,24.70
2018-01-13T20:28:36.755Z,30.30
2018-01-13T20:31:05.868Z,27.02
2018-01-13T20:33:34.488Z,25.88
2018-01-13T20:36:03.731Z,27.80
2018-01-13T20:38:33.030Z,26.80
2018-01-13T20:41:01.300Z,27.23
2018-01-13T20:43:29.258Z,26.48
2018-01-13T20:45:57.320Z,24.50
2018-01-13T20:48:25.322Z,32.53
2018-01-13T20:50:53.251Z,29.67
2018-01-13T20:53:21.223Z,24.60
2018-01-13T20:55:49.977Z,28.52
2018-01-13T20:58:18.032Z,26.80
2018-01-13T21:00:46.398Z,28.92
2018-01-13T21:03:15.218Z,29.60
2018-01-13T21:05:43.604Z,26.60
2018-01-13T21:08:11.911Z,22.90
2018-01-13T21:10:39.881Z,28.55
2018-01-13T21:13:08.369Z,26.62
2018-01-13T21:15:36.783Z,27.58
2018-01-13T21:18:05.072Z,29.33
2018-01-13T21:23:06.292Z,26.87
2018-01-13T21:28:09.974Z,28.80
2018-01-13T21:30:39.355Z,31.20
2018-01-13T21:33:08.329Z,28.55
2018-01-13T21:35:36.034Z,34.13
2018-01-13T21:38:04.272Z,31.10
2018-01-13T21:40:33.907Z,31.52
2018-01-13T21:43:01.977Z,26.15
2018-01-13T21:45:31.010Z,31.35
2018-01-13T21:48:00.579Z,31.17
2018-01-13T21:50:29.137Z,32.22
2018-01-13T21:52:57.377Z,17.95
2018-01-13T21:55:25.666Z,33.33
2018-01-13T21:57:54.803Z,28.42
2018-01-13T22:00:22.998Z,31.23
2018-01-13T22:02:53.831Z,34.45
2018-01-13T22:05:23.013Z,29.00
2018-01-13T22:07:51.213Z,33.38
2018-01-13T22:10:19.777Z,32.42
2018-01-13T22:12:50.420Z,34.83
2018-01-13T22:15:18.881Z,33.03
2018-01-13T22:17:47.882Z,31.50
2018-01-13T22:20:16.004Z,33.63
2018-01-13T22:22:45.082Z,30.00
2018-01-13T22:25:15.059Z,30.85
2018-01-13T22:27:43.963Z,31.05
2018-01-13T22:30:12.880Z,32.25
2018-01-13T22:32:41.769Z,40.47
2018-01-13T22:35:10.247Z,33.42
2018-01-13T22:37:38.794Z,31.00
2018-01-13T22:40:06.821Z,34.40
2018-01-13T22:42:35.157Z,37.22
2018-01-13T22:45:03.995Z,33.30
2018-01-13T22:47:33.049Z,28.77
2018-01-13T22:50:01.823Z,32.83
2018-01-13T22:52:29.941Z,30.67
2018-01-13T22:54:57.936Z,34.15
2018-01-13T22:57:26.932Z,32.40
2018-01-13T22:59:55.288Z,34.63
2018-01-13T23:02:23.244Z,28.83
2018-01-13T23:04:51.652Z,39.92
2018-01-13T23:07:20.162Z,34.47
2018-01-13T23:09:48.616Z,32.97
2018-01-13T23:12:16.814Z,37.50
2018-01-13T23:14:45.083Z,31.02
2018-01-13T23:17:13.407Z,37.22
2018-01-13T23:19:43.628Z,45.88
2018-01-13T23:22:12.238Z,40.38
2018-01-13T23:24:41.529Z,29.17
2018-01-13T23:27:22.358Z,38.40
2018-01-13T23:29:50.758Z,39.67
2018-01-13T23:32:20.113Z,38.45
2018-01-13T23:34:48.553Z,40.50
2018-01-13T23:37:17.291Z,41.50
2018-01-13T23:39:46.118Z,36.15
2018-01-13T23:42:14.105Z,41.92
2018-01-13T23:44:42.465Z,40.25
2018-01-13T23:47:10.896Z,46.60
2018-01-13T23:49:38.972Z,33.67
2018-01-13T23:52:08.019Z,30.62
2018-01-13T23:54:36.301Z,37.03
2018-01-13T23:57:04.242Z,30.90
2018-01-13T23:59:33.200Z,35.75
